Stations météo

réclame
Mon MeteoGroup
Neuhaus am Rennweg, Allemagne (10557): Température de l'air & dewpoint: 12.10.2017 07:00:00 - 18.10.2017 07:00:00 (CEST)Neuhaus am Rennweg, Allemagne (10557): Température de l'air 5cm & Température de l'air -5cm: 12.10.2017 07:00:00 - 18.10.2017 07:00:00 (CEST)Neuhaus am Rennweg, Allemagne (10557): Température de l'air -20cm & Température de l'air -100cm: 12.10.2017 07:00:00 - 18.10.2017 07:00:00 (CEST)Neuhaus am Rennweg, Allemagne (10557): Vitesse du vent & gusts: 12.10.2017 07:00:00 - 18.10.2017 07:00:00 (CEST)Neuhaus am Rennweg, Allemagne (10557): Direction du vent: 12.10.2017 07:00:00 - 18.10.2017 07:00:00 (CEST)Neuhaus am Rennweg, Allemagne (10557): visibility: 12.10.2017 07:00:00 - 18.10.2017 07:00:00 (CEST)Neuhaus am Rennweg, Allemagne (10557): Ensoleillement: 12.10.2017 07:00:00 - 18.10.2017 07:00:00 (CEST)Neuhaus am Rennweg, Allemagne (10557): Quantités de précipitations: 12.10.2017 07:00:00 - 18.10.2017 07:00:00 (CEST)
Date & Time tt [°C] td [°C] tt 5cm [°C] tt -5cm [°C] tt -20cm [°C] tt -100cm [°C] ff [km/h] ff [knt] fx [km/h] fx [knt] dd vv [km] sd [min] rr [mm]
18.10.2017 07:00:00 11,2 6,9 5,0 6,7 9,9 10,7 10 5 13 7 WSW 30 0 0,0
18.10.2017 06:00:00 10,8 9,7 4,1 6,9 10,1 10,7 8 4 10 6 SW 7 0 0,0
18.10.2017 05:00:00 11,4 8,2 6,4 7,2 10,3 10,7 8 5 11 6 WSW 20 0 0,0
18.10.2017 04:00:00 9,9 7,3 3,5 7,5 10,5 10,7 7 4 10 5 W 32 0 0,0
18.10.2017 03:00:00 11,4 9,5 6,6 7,9 10,8 10,7 8 5 11 6 WSW 15 0 0,0
18.10.2017 02:00:00 11,4 9,7 5,8 8,3 11,0 10,7 9 5 14 8 SW 19 0 0,0
18.10.2017 01:00:00 11,5 10,5 6,3 8,7 11,2 10,7 10 6 17 9 SSW 10 0 0,0
18.10.2017 00:00:00 12,1 10,8 7,2 9,2 11,5 10,7 10 5 14 8 SW 14 0 0,0
17.10.2017 23:00:00 11,5 10,6 6,1 9,7 11,7 10,7 10 5 15 8 SSW 15 0 0,0
17.10.2017 22:00:00 11,7 10,7 6,8 10,4 11,9 10,7 10 5 18 10 S 14 0 0,0
17.10.2017 21:00:00 12,5 11,0 7,6 11,1 12,1 10,7 11 6 19 10 SSW 17 0 0,0
17.10.2017 20:00:00 12,8 11,2 8,3 12,0 12,2 10,7 11 6 17 9 S 17 0 0,0
17.10.2017 19:00:00 12,7 10,1 8,3 13,1 12,1 10,7 11 6 18 10 S 30 0 0,0
17.10.2017 18:00:00 14,7 9,2 10,4 14,5 11,9 10,7 10 5 15 8 S 42 47 0,0
17.10.2017 17:00:00 18,0 7,1 18,5 15,7 11,6 10,7 9 5 19 11 SSW 32 60 0,0
17.10.2017 16:00:00 19,0 8,6 21,5 16,3 11,2 10,7 9 5 21 12 SSW 40 60 0,0
17.10.2017 15:00:00 19,2 7,0 22,8 16,2 10,7 10,7 12 7 19 11 SW 16 60 0,0
17.10.2017 14:00:00 19,2 7,6 23,2 15,4 10,2 10,6 12 7 19 11 SSW 23 60 0,0
17.10.2017 13:00:00 18,7 9,6 22,4 13,6 9,9 10,6 11 6 21 11 S 21 60 0,0
17.10.2017 12:00:00 17,5 10,3 19,9 11,3 9,8 10,6 11 6 18 10 S 17 60 0,0
17.10.2017 11:00:00 15,3 10,4 12,7 9,2 9,8 10,6 11 6 17 9 S 15 60 0,0
17.10.2017 10:00:00 13,3 10,1 10,3 7,9 10,0 10,6 9 5 16 9 SSW 27 60 0,0
17.10.2017 09:00:00 11,5 8,9 6,5 7,6 10,2 10,6 10 6 17 9 SSW 25 45 0,0
17.10.2017 08:00:00 10,6 9,0 6,4 7,8 10,3 10,6 11 6 20 11 SSW 16 0 0,0
17.10.2017 07:00:00 11,1 8,6 6,6 8,1 10,5 10,6 13 7 20 11 SSW 22 0 0,0
17.10.2017 06:00:00 11,5 8,8 6,6 8,5 10,7 10,6 11 6 21 11 S 24 0 0,0
17.10.2017 05:00:00 12,3 8,6 7,9 8,9 10,8 10,6 13 7 21 12 SSW 32 0 0,0
17.10.2017 04:00:00 12,6 8,3 7,5 9,4 11,0 10,6 13 7 23 12 SSW 37 0 0,0
17.10.2017 03:00:00 12,8 9,9 9,5 9,7 11,1 10,6 14 7 23 12 SSW 28 0 0,0
17.10.2017 02:00:00 12,8 9,9 9,7 9,9 11,3 10,6 13 7 21 11 S 26 0 0,0
17.10.2017 01:00:00 12,9 10,1 9,5 10,2 11,4 10,6 13 7 24 13 SSW 21 0 0,0
17.10.2017 00:00:00 12,8 10,5 9,2 10,5 11,6 10,6 13 7 24 13 SSW 20 0 0,0
16.10.2017 23:00:00 12,6 10,5 9,7 10,7 11,8 10,6 13 7 21 11 S 20 0 0,0
16.10.2017 22:00:00 12,6 10,8 9,3 11,1 11,9 10,6 13 7 21 11 SSW 19 0 0,0
16.10.2017 21:00:00 12,4 10,0 9,6 11,7 12,0 10,6 13 7 23 12 S 23 0 0,0
16.10.2017 20:00:00 12,6 10,1 9,6 12,5 12,1 10,6 14 8 24 13 SSW 24 0 0,0
16.10.2017 19:00:00 12,8 10,4 10,4 13,5 12,1 10,6 11 6 18 10 SSW 24 0 0,0
16.10.2017 18:00:00 14,6 10,8 12,7 14,6 11,9 10,6 11 6 21 11 SSW 30 25 0,0
16.10.2017 17:00:00 16,7 11,6 17,2 15,5 11,6 10,6 9 5 22 12 SSW 30 60 0,0
16.10.2017 16:00:00 18,1 11,1 20,0 16,0 11,2 10,6 10 6 23 13 SSW 20 60 0,0
16.10.2017 15:00:00 17,8 10,6 21,1 15,7 10,8 10,6 13 7 25 14 SW 25 60 0,0
16.10.2017 14:00:00 17,8 10,3 21,0 14,9 10,4 10,6 10 6 31 17 SSW 21 60 0,0
16.10.2017 13:00:00 17,5 9,4 20,6 13,8 10,1 10,6 13 7 29 16 WSW 17 60 0,0
16.10.2017 12:00:00 15,9 10,5 18,6 11,9 10,0 10,6 13 7 32 17 SW 15 60 0,0
16.10.2017 11:00:00 13,6 11,2 12,1 10,2 10,0 10,6 11 6 24 13 SW 12 60 0,0
16.10.2017 10:00:00 11,3 10,9 10,8 9,3 10,0 10,6 14 8 38 21 WSW 5 43 0,0
16.10.2017 09:00:00 10,3 10,3 9,8 8,9 10,1 10,5 19 10 35 19 SW 1,4 8 0,0
16.10.2017 08:00:00 9,3 9,3 8,7 8,6 10,2 10,5 14 8 21 11 S 0,2 0 0,0
16.10.2017 07:00:00 10,4 10,1 8,4 8,8 10,3 10,5 11 6 24 13 SSW 1,7 0 0,0
16.10.2017 06:00:00 10,6 10,1 8,6 9,1 10,5 10,5 16 9 25 14 SW 2,8 0 0,0
16.10.2017 05:00:00 12,3 10,4 8,6 9,4 10,6 10,5 14 8 28 15 SW 15 0 0,0
16.10.2017 04:00:00 13,1 10,5 10,3 9,6 10,7 10,5 16 9 34 18 SW 25 0 0,0
16.10.2017 03:00:00 12,8 10,2 10,5 9,6 10,8 10,5 20 11 33 18 SW 32 0 0,0
16.10.2017 02:00:00 12,3 9,9 9,7 9,9 10,9 10,5 15 8 37 20 SSW 22 0 0,0
16.10.2017 01:00:00 12,7 10,1 10,4 10,1 11,1 10,5 17 9 37 20 SW 31 0 0,0
16.10.2017 00:00:00 12,8 10,6 10,5 10,3 11,2 10,5 21 11 40 22 SSW 32 0 0,0
15.10.2017 23:00:00 12,9 10,5 10,6 10,5 11,4 10,5 19 11 35 19 SSW 38 0 0,0
15.10.2017 22:00:00 12,8 10,0 10,4 10,8 11,5 10,5 16 9 30 16 SSW 41 0 0,0
15.10.2017 21:00:00 12,6 10,0 9,5 11,3 11,7 10,5 18 10 31 17 SSW 44 0 0,0
15.10.2017 20:00:00 13,1 9,6 10,8 12,1 11,7 10,5 18 10 35 19 SSW 52 0 0,0
15.10.2017 19:00:00 13,3 11,2 10,6 13,1 11,7 10,5 15 8 27 14 SSW 33 2 0,0
15.10.2017 18:00:00 14,6 11,4 12,5 14,3 11,5 10,5 13 7 26 14 SSW 46 60 0,0
15.10.2017 17:00:00 16,4 11,1 17,8 15,3 11,2 10,5 10 5 28 15 SSW 26 60 0,0
15.10.2017 16:00:00 17,2 10,4 19,9 16,0 10,7 10,5 14 8 28 15 S 21 60 0,0
15.10.2017 15:00:00 17,1 9,9 20,3 15,8 10,3 10,5 16 9 26 14 S 16 60 0,0
15.10.2017 14:00:00 17,6 10,5 21,2 15,1 9,8 10,5 14 8 26 14 S 43 60 0,0
15.10.2017 13:00:00 17,4 10,4 21,1 13,6 9,5 10,5 10 6 24 13 S 21 60 0,0
15.10.2017 12:00:00 16,1 10,3 17,2 11,5 9,3 10,5 14 8 24 13 S 18 60 0,0
15.10.2017 11:00:00 14,6 10,9 12,3 9,5 9,3 10,5 11 6 20 11 SSW 14 60 0,0
15.10.2017 10:00:00 12,7 10,5 10,8 8,1 9,3 10,5 9 5 19 10 SSW 16 60 0,0
15.10.2017 09:00:00 11,0 10,1 8,9 7,7 9,4 10,5 11 6 22 12 SSW 9 49 0,0
15.10.2017 08:00:00 10,4 9,6 8,0 7,8 9,6 10,5 12 7 23 13 SSW 8 0 0,0
15.10.2017 07:00:00 10,5 9,6 8,4 7,8 9,7 10,5 12 6 21 11 SSW 11 0 0,0
15.10.2017 06:00:00 10,6 9,8 8,2 8,0 9,8 10,5 13 7 20 11 S 12 0 0,0
15.10.2017 05:00:00 10,6 9,9 6,8 8,1 10,0 10,5 12 7 20 11 SSW 17 0 0,0
15.10.2017 04:00:00 10,5 10,0 7,8 8,3 10,2 10,5 11 6 19 10 SSW 20 0 0,0
15.10.2017 03:00:00 10,7 10,2 8,1 8,6 10,3 10,5 11 6 19 10 SSW 28 0 0,0
15.10.2017 02:00:00 11,2 10,4 8,4 8,9 10,5 10,5 12 7 18 10 SW 28 0 0,0
15.10.2017 01:00:00 11,0 10,2 8,0 9,2 10,6 10,5 13 7 21 11 WSW 25 0 0,0
15.10.2017 00:00:00 11,0 10,3 7,9 9,5 10,8 10,5 13 7 18 10 SSW 24 0 0,0
14.10.2017 23:00:00 11,1 10,4 8,0 9,9 11,0 10,5 11 6 16 9 WSW 30 0 0,0
14.10.2017 22:00:00 11,1 10,4 8,2 10,4 11,1 10,5 11 6 16 9 WSW 27 0 0,0
14.10.2017 21:00:00 11,3 10,4 8,5 11,0 11,3 10,5 12 6 19 10 WSW 25 0 0,0
14.10.2017 20:00:00 11,5 10,5 9,2 11,8 11,3 10,5 10 6 19 11 SSW 28 0 0,0
14.10.2017 19:00:00 12,2 11,0 10,0 12,8 11,3 10,5 13 7 20 11 SW 29 3 0,0
14.10.2017 18:00:00 13,7 11,3 12,1 13,9 11,1 10,5 11 6 21 11 SW 38 57 0,0
14.10.2017 17:00:00 15,2 11,2 17,4 14,7 10,8 10,5 10 5 21 11 SW 22 58 0,0
14.10.2017 16:00:00 15,2 11,1 18,9 15,1 10,5 10,5 12 7 24 13 WSW 15 53 0,0
14.10.2017 15:00:00 14,9 11,0 18,1 15,0 10,1 10,5 13 7 25 13 SW 37 44 0,0
14.10.2017 14:00:00 15,0 10,6 20,3 14,7 9,7 10,5 13 7 28 15 W 22 56 0,0
14.10.2017 13:00:00 14,4 10,5 19,0 13,3 9,4 10,5 14 8 28 15 W 20 60 0,0
14.10.2017 12:00:00 13,7 9,9 16,6 11,9 9,2 10,5 16 9 29 16 W 17 60 0,0
14.10.2017 11:00:00 12,7 10,1 11,7 10,4 9,0 10,5 16 8 27 14 WSW 19 60 0,0
14.10.2017 10:00:00 11,3 10,3 10,8 9,6 9,0 10,5 14 7 23 12 WSW 21 23 0,0
14.10.2017 09:00:00 10,5 10,0 10,4 9,1 8,9 10,5 10 6 17 9 WSW 10 0 0,0
14.10.2017 08:00:00 10,4 10,0 10,0 8,8 8,9 10,5 10 5 20 11 WSW 9 0 0,0
14.10.2017 07:00:00 10,4 10,2 9,9 8,6 8,9 10,5 11 6 19 10 WSW 4,7 0 0,0
14.10.2017 06:00:00 10,5 10,1 9,8 8,3 8,9 10,5 10 5 18 10 WSW 10 0 0,0
14.10.2017 05:00:00 10,1 9,4 9,2 7,8 9,0 10,5 14 8 28 15 W 25 0 0,0
14.10.2017 04:00:00 9,7 9,5 8,5 7,8 9,1 10,5 14 8 24 13 W 7 0 0,0
14.10.2017 03:00:00 9,4 9,3 8,3 7,6 9,2 10,5 13 7 25 14 WSW 3,5 0 0,0
14.10.2017 02:00:00 9,3 8,4 7,2 7,8 9,3 10,5 13 7 25 13 WSW 29 0 0,0
14.10.2017 01:00:00 9,4 9,2 7,5 8,0 9,4 10,5 13 7 22 12 WSW 4,4 0 0,0
14.10.2017 00:00:00 9,3 8,9 7,3 8,3 9,5 10,5 11 6 26 14 WSW 11 0 0,0
13.10.2017 23:00:00 9,6 9,2 7,9 8,7 9,6 10,5 13 7 24 13 W 16 0 0,0
13.10.2017 22:00:00 9,8 9,7 8,6 8,9 9,7 10,5 14 8 29 16 W 6 0 0,0
13.10.2017 21:00:00 9,6 9,5 8,4 9,2 9,8 10,5 14 7 26 14 W 4,3 0 0,0
13.10.2017 20:00:00 9,8 9,4 8,8 9,6 9,8 10,5 16 9 26 14 W 12 0 0,0
13.10.2017 19:00:00 9,9 8,8 8,4 10,4 9,7 10,5 12 6 25 13 WSW 23 0 0,0
13.10.2017 18:00:00 11,0 9,2 10,4 11,3 9,6 10,5 13 7 31 17 W 33 0 0,0
13.10.2017 17:00:00 11,6 9,5 12,3 11,6 9,4 10,5 11 6 30 16 WSW 35 8 0,0
13.10.2017 16:00:00 11,5 9,3 12,5 11,4 9,2 10,5 16 9 29 16 W 31 4 0,0
13.10.2017 15:00:00 10,9 9,3 11,7 11,3 9,0 10,5 16 9 29 16 W 24 0 0,0
13.10.2017 14:00:00 10,9 9,1 12,4 11,2 8,8 10,5 14 8 28 15 WSW 23 1 0,0
13.10.2017 13:00:00 10,6 8,5 12,5 10,6 8,6 10,5 13 7 32 18 WSW 27 15 0,0
13.10.2017 12:00:00 10,7 7,7 12,1 9,7 8,4 10,5 17 9 34 18 W 18 29 0,0
13.10.2017 11:00:00 9,0 8,5 9,6 8,8 8,4 10,5 13 7 36 20 W 12 2 0,0
13.10.2017 10:00:00 8,9 8,9 9,2 8,0 8,3 10,5 14 8 29 16 WSW 0,5 0 0,0
13.10.2017 09:00:00 8,5 8,5 8,6 7,6 8,3 10,5 11 6 24 13 SW 0,1 0 0,0
13.10.2017 08:00:00 7,9 7,8 7,7 7,2 8,4 10,5 15 8 27 15 SW 2,0 0 0,0
13.10.2017 07:00:00 7,6 7,5 7,1 6,9 8,5 10,5 14 8 27 15 WSW 7 0 0,0
13.10.2017 06:00:00 6,9 6,8 6,2 6,6 8,6 10,5 14 8 32 17 WSW 2,8 0 0,0
13.10.2017 05:00:00 7,1 6,3 5,8 6,9 8,7 10,5 14 7 29 16 WSW 12 0 0,0
13.10.2017 04:00:00 7,5 6,4 6,8 7,1 8,8 10,5 17 9 34 18 WSW 20 0 0,0
13.10.2017 03:00:00 7,6 5,7 6,7 7,0 8,9 10,5 17 9 30 16 W 45 0 0,0
13.10.2017 02:00:00 7,2 5,5 5,7 7,1 9,0 10,5 16 9 33 18 W 36 0 0,0
13.10.2017 01:00:00 7,3 5,5 5,9 7,4 9,1 10,5 17 9 34 18 W 43 0 0,0
13.10.2017 00:00:00 7,7 5,6 6,7 7,5 9,3 10,5 19 11 32 17 W 46 0 0,0
12.10.2017 23:00:00 7,5 5,6 6,4 7,7 9,4 10,5 16 9 25 13 W 50 0 0,0
12.10.2017 22:00:00 7,9 5,7 6,2 8,0 9,6 10,5 15 8 26 14 W 55 0 0,0
12.10.2017 21:00:00 8,4 5,7 7,0 8,4 9,7 10,5 13 7 29 16 W 58 0 0,0
12.10.2017 20:00:00 8,7 5,8 7,3 8,8 9,8 10,5 15 8 34 18 W 70 0 0,0
12.10.2017 19:00:00 8,9 5,7 7,4 9,5 9,8 10,5 19 10 36 19 WSW 70 0 0,0
12.10.2017 18:00:00 9,8 5,8 8,7 10,4 9,8 10,5 16 9 37 20 WSW 70 38 0,0
12.10.2017 17:00:00 10,7 5,5 11,1 11,1 9,7 10,5 19 10 45 24 W 35 43 0,0
12.10.2017 16:00:00 11,4 6,1 13,1 11,4 9,5 10,5 20 11 51 28 WSW 56 42 0,0
12.10.2017 15:00:00 11,5 6,5 12,5 11,4 9,4 10,5 23 12 46 25 WSW 27 30 0,0
12.10.2017 14:00:00 10,7 7,7 11,9 11,2 9,2 10,5 22 12 45 24 W 47 16 0,0
12.10.2017 13:00:00 10,8 8,4 13,0 10,7 9,1 10,5 21 11 41 22 W 37 26 0,0
12.10.2017 12:00:00 9,5 9,1 9,7 9,6 9,0 10,5 19 10 47 26 W 9 0 0,0
12.10.2017 11:00:00 9,2 9,2 9,6 9,3 9,0 10,5 23 12 42 23 W 4,2 0 0,0
12.10.2017 10:00:00 9,0 9,0 9,2 9,1 9,0 10,5 21 12 42 23 WSW 0,3 0 0,1
12.10.2017 09:00:00 9,1 9,0 9,2 9,0 9,0 10,5 23 12 45 24 WSW 1,9 0 0,0
12.10.2017 08:00:00 8,9 8,8 8,9 8,9 9,0 10,5 23 13 47 25 SW 1,3 0 0,0
12.10.2017 07:00:00 9,1 9,0 9,1 8,9 8,9 10,5 21 11 52 28 WSW 3,4 0 0,0

tt = Température de l'air
td = dewpoint
tt 5cm = Température de l'air 5cm
tt -5cm = Température de l'air -5cm
tt -20cm = Température de l'air -20cm
tt -100cm = Température de l'air -100cm
ff = Vitesse du vent
fx = gusts
dd = Direction du vent
vv = visibility
sd = Ensoleillement
rr = Quantités de précipitations

stations d'obs. à proximité